sensor_id;sensor_type;location;lat;lon;timestamp;P1;durP1;ratioP1;P2;durP2;ratioP2
22415;SDS011;12204;50.600;4.608;2023-04-25T00:04:07;5.57;;;1.42;;
22415;SDS011;12204;50.600;4.608;2023-04-25T00:09:11;3.97;;;1.15;;
22415;SDS011;12204;50.600;4.608;2023-04-25T00:14:14;4.43;;;1.20;;
22415;SDS011;12204;50.600;4.608;2023-04-25T00:19:19;3.00;;;1.00;;
22415;SDS011;12204;50.600;4.608;2023-04-25T00:24:22;3.67;;;1.15;;
22415;SDS011;12204;50.600;4.608;2023-04-25T00:29:26;5.13;;;1.00;;
22415;SDS011;12204;50.600;4.608;2023-04-25T00:34:31;4.30;;;1.20;;
22415;SDS011;12204;50.600;4.608;2023-04-25T00:39:34;4.45;;;1.15;;
22415;SDS011;12204;50.600;4.608;2023-04-25T00:44:38;3.72;;;1.15;;
22415;SDS011;12204;50.600;4.608;2023-04-25T00:49:43;3.78;;;1.20;;
22415;SDS011;12204;50.600;4.608;2023-04-25T00:54:47;4.85;;;1.17;;
22415;SDS011;12204;50.600;4.608;2023-04-25T00:59:51;4.35;;;1.17;;
22415;SDS011;12204;50.600;4.608;2023-04-25T01:04:56;3.67;;;1.20;;
22415;SDS011;12204;50.600;4.608;2023-04-25T01:10:00;3.58;;;1.00;;
22415;SDS011;12204;50.600;4.608;2023-04-25T01:15:05;3.45;;;1.10;;
22415;SDS011;12204;50.600;4.608;2023-04-25T01:20:11;4.78;;;1.30;;
22415;SDS011;12204;50.600;4.608;2023-04-25T01:25:18;3.60;;;1.10;;
22415;SDS011;12204;50.600;4.608;2023-04-25T01:30:23;2.83;;;1.00;;
22415;SDS011;12204;50.600;4.608;2023-04-25T01:35:30;3.83;;;1.23;;
22415;SDS011;12204;50.600;4.608;2023-04-25T01:40:35;5.00;;;1.23;;
22415;SDS011;12204;50.600;4.608;2023-04-25T01:45:43;4.20;;;1.10;;
22415;SDS011;12204;50.600;4.608;2023-04-25T01:50:46;4.07;;;1.00;;
22415;SDS011;12204;50.600;4.608;2023-04-25T01:55:51;5.43;;;1.13;;
22415;SDS011;12204;50.600;4.608;2023-04-25T02:00:56;5.65;;;1.27;;
22415;SDS011;12204;50.600;4.608;2023-04-25T02:06:06;4.93;;;1.10;;
22415;SDS011;12204;50.600;4.608;2023-04-25T02:11:14;5.10;;;1.00;;
22415;SDS011;12204;50.600;4.608;2023-04-25T02:16:26;4.28;;;1.20;;
22415;SDS011;12204;50.600;4.608;2023-04-25T02:21:34;3.80;;;1.23;;
22415;SDS011;12204;50.600;4.608;2023-04-25T02:26:39;4.05;;;1.13;;
22415;SDS011;12204;50.600;4.608;2023-04-25T02:31:43;6.65;;;1.40;;
22415;SDS011;12204;50.600;4.608;2023-04-25T02:36:47;3.53;;;1.10;;
22415;SDS011;12204;50.600;4.608;2023-04-25T02:41:53;3.33;;;1.20;;
22415;SDS011;12204;50.600;4.608;2023-04-25T02:46:57;4.22;;;1.17;;
22415;SDS011;12204;50.600;4.608;2023-04-25T02:52:00;8.00;;;1.20;;
22415;SDS011;12204;50.600;4.608;2023-04-25T02:57:08;4.22;;;1.20;;
22415;SDS011;12204;50.600;4.608;2023-04-25T03:02:12;4.43;;;1.10;;
22415;SDS011;12204;50.600;4.608;2023-04-25T03:07:16;4.50;;;1.30;;
22415;SDS011;12204;50.600;4.608;2023-04-25T03:12:24;4.22;;;1.20;;
22415;SDS011;12204;50.600;4.608;2023-04-25T03:17:27;4.05;;;1.00;;
22415;SDS011;12204;50.600;4.608;2023-04-25T03:22:32;7.35;;;1.33;;
22415;SDS011;12204;50.600;4.608;2023-04-25T03:27:37;4.28;;;1.08;;
22415;SDS011;12204;50.600;4.608;2023-04-25T03:32:41;4.07;;;1.00;;
22415;SDS011;12204;50.600;4.608;2023-04-25T03:37:48;3.80;;;1.00;;
22415;SDS011;12204;50.600;4.608;2023-04-25T03:42:59;4.00;;;1.20;;
22415;SDS011;12204;50.600;4.608;2023-04-25T03:48:03;3.63;;;1.08;;
22415;SDS011;12204;50.600;4.608;2023-04-25T03:53:07;2.95;;;1.00;;
22415;SDS011;12204;50.600;4.608;2023-04-25T03:58:32;5.68;;;1.00;;
22415;SDS011;12204;50.600;4.608;2023-04-25T04:03:38;5.47;;;1.20;;
22415;SDS011;12204;50.600;4.608;2023-04-25T04:08:42;4.95;;;1.20;;
22415;SDS011;12204;50.600;4.608;2023-04-25T04:13:47;5.13;;;1.10;;
22415;SDS011;12204;50.600;4.608;2023-04-25T04:18:51;4.75;;;1.35;;
22415;SDS011;12204;50.600;4.608;2023-04-25T04:23:56;3.83;;;1.10;;
22415;SDS011;12204;50.600;4.608;2023-04-25T04:34:14;3.35;;;1.10;;
22415;SDS011;12204;50.600;4.608;2023-04-25T04:39:19;4.65;;;1.10;;
22415;SDS011;12204;50.600;4.608;2023-04-25T04:44:36;5.63;;;1.27;;
22415;SDS011;12204;50.600;4.608;2023-04-25T04:49:57;4.13;;;1.10;;
22415;SDS011;12204;50.600;4.608;2023-04-25T04:55:12;4.60;;;1.30;;
22415;SDS011;12204;50.600;4.608;2023-04-25T05:00:38;3.35;;;1.13;;
22415;SDS011;12204;50.600;4.608;2023-04-25T05:06:00;6.38;;;1.20;;
22415;SDS011;12204;50.600;4.608;2023-04-25T05:11:10;10.40;;;1.30;;
22415;SDS011;12204;50.600;4.608;2023-04-25T05:16:44;5.93;;;1.10;;
22415;SDS011;12204;50.600;4.608;2023-04-25T05:21:57;8.13;;;1.33;;
22415;SDS011;12204;50.600;4.608;2023-04-25T05:27:12;7.45;;;1.38;;
22415;SDS011;12204;50.600;4.608;2023-04-25T06:09:14;5.60;;;1.20;;
22415;SDS011;12204;50.600;4.608;2023-04-25T06:14:17;7.45;;;1.20;;
22415;SDS011;12204;50.600;4.608;2023-04-25T06:19:23;7.35;;;1.17;;
22415;SDS011;12204;50.600;4.608;2023-04-25T06:24:29;8.45;;;1.40;;
22415;SDS011;12204;50.600;4.608;2023-04-25T06:29:32;5.68;;;1.10;;
22415;SDS011;12204;50.600;4.608;2023-04-25T06:34:36;6.93;;;1.20;;
22415;SDS011;12204;50.600;4.608;2023-04-25T06:39:41;8.00;;;1.30;;
22415;SDS011;12204;50.600;4.608;2023-04-25T06:44:45;4.38;;;1.10;;
22415;SDS011;12204;50.600;4.608;2023-04-25T06:49:49;5.97;;;1.30;;
22415;SDS011;12204;50.600;4.608;2023-04-25T06:54:55;10.68;;;1.15;;
22415;SDS011;12204;50.600;4.608;2023-04-25T07:00:19;8.05;;;1.48;;
22415;SDS011;12204;50.600;4.608;2023-04-25T07:05:23;13.13;;;1.55;;
22415;SDS011;12204;50.600;4.608;2023-04-25T07:10:30;9.43;;;1.52;;
22415;SDS011;12204;50.600;4.608;2023-04-25T07:15:34;8.57;;;1.23;;
22415;SDS011;12204;50.600;4.608;2023-04-25T07:20:38;6.72;;;1.30;;
22415;SDS011;12204;50.600;4.608;2023-04-25T07:25:43;5.47;;;1.30;;
22415;SDS011;12204;50.600;4.608;2023-04-25T07:35:53;9.45;;;1.80;;
22415;SDS011;12204;50.600;4.608;2023-04-25T07:40:58;11.70;;;1.90;;
22415;SDS011;12204;50.600;4.608;2023-04-25T07:46:02;15.23;;;1.73;;
22415;SDS011;12204;50.600;4.608;2023-04-25T07:51:08;13.45;;;2.00;;
22415;SDS011;12204;50.600;4.608;2023-04-25T07:56:13;17.75;;;1.98;;
22415;SDS011;12204;50.600;4.608;2023-04-25T08:01:19;10.32;;;1.90;;
22415;SDS011;12204;50.600;4.608;2023-04-25T08:06:35;15.82;;;2.15;;
22415;SDS011;12204;50.600;4.608;2023-04-25T08:11:49;15.75;;;2.08;;
22415;SDS011;12204;50.600;4.608;2023-04-25T08:16:59;18.40;;;2.10;;
22415;SDS011;12204;50.600;4.608;2023-04-25T08:22:02;14.57;;;2.10;;
22415;SDS011;12204;50.600;4.608;2023-04-25T08:27:18;15.15;;;2.22;;
22415;SDS011;12204;50.600;4.608;2023-04-25T08:32:23;15.98;;;2.28;;
22415;SDS011;12204;50.600;4.608;2023-04-25T08:37:43;19.75;;;2.30;;
22415;SDS011;12204;50.600;4.608;2023-04-25T08:42:50;17.13;;;2.20;;
22415;SDS011;12204;50.600;4.608;2023-04-25T08:47:55;14.27;;;2.30;;
22415;SDS011;12204;50.600;4.608;2023-04-25T08:53:00;16.85;;;2.45;;
22415;SDS011;12204;50.600;4.608;2023-04-25T08:58:09;14.83;;;2.20;;
22415;SDS011;12204;50.600;4.608;2023-04-25T09:03:13;12.70;;;2.20;;
22415;SDS011;12204;50.600;4.608;2023-04-25T09:08:17;14.65;;;2.10;;
22415;SDS011;12204;50.600;4.608;2023-04-25T09:13:25;8.45;;;1.88;;
22415;SDS011;12204;50.600;4.608;2023-04-25T09:18:54;13.88;;;1.85;;
22415;SDS011;12204;50.600;4.608;2023-04-25T09:23:58;12.27;;;2.00;;
22415;SDS011;12204;50.600;4.608;2023-04-25T09:29:05;8.75;;;1.90;;
22415;SDS011;12204;50.600;4.608;2023-04-25T09:34:14;7.15;;;1.40;;
22415;SDS011;12204;50.600;4.608;2023-04-25T09:39:28;10.70;;;1.80;;
22415;SDS011;12204;50.600;4.608;2023-04-25T09:44:48;9.18;;;1.70;;
22415;SDS011;12204;50.600;4.608;2023-04-25T09:49:55;9.30;;;1.90;;
22415;SDS011;12204;50.600;4.608;2023-04-25T09:54:59;7.93;;;1.60;;
22415;SDS011;12204;50.600;4.608;2023-04-25T10:00:08;8.55;;;1.88;;
22415;SDS011;12204;50.600;4.608;2023-04-25T10:05:17;6.78;;;1.50;;
22415;SDS011;12204;50.600;4.608;2023-04-25T10:10:23;8.35;;;1.50;;
22415;SDS011;12204;50.600;4.608;2023-04-25T10:15:34;11.18;;;1.73;;
22415;SDS011;12204;50.600;4.608;2023-04-25T10:20:40;8.02;;;1.50;;
22415;SDS011;12204;50.600;4.608;2023-04-25T10:25:44;7.68;;;1.50;;
22415;SDS011;12204;50.600;4.608;2023-04-25T10:30:58;6.10;;;1.38;;
22415;SDS011;12204;50.600;4.608;2023-04-25T10:36:10;9.90;;;1.65;;
22415;SDS011;12204;50.600;4.608;2023-04-25T10:41:17;6.82;;;1.80;;
22415;SDS011;12204;50.600;4.608;2023-04-25T10:46:24;8.35;;;1.73;;
22415;SDS011;12204;50.600;4.608;2023-04-25T10:51:31;11.73;;;1.77;;
22415;SDS011;12204;50.600;4.608;2023-04-25T10:56:41;10.52;;;1.77;;
22415;SDS011;12204;50.600;4.608;2023-04-25T11:01:48;6.88;;;1.73;;
22415;SDS011;12204;50.600;4.608;2023-04-25T11:07:07;6.40;;;1.65;;
22415;SDS011;12204;50.600;4.608;2023-04-25T11:12:22;11.55;;;2.00;;
22415;SDS011;12204;50.600;4.608;2023-04-25T11:17:29;9.45;;;1.70;;
22415;SDS011;12204;50.600;4.608;2023-04-25T11:22:33;9.18;;;1.70;;
22415;SDS011;12204;50.600;4.608;2023-04-25T11:27:48;7.95;;;1.90;;
22415;SDS011;12204;50.600;4.608;2023-04-25T11:32:54;7.93;;;1.85;;
22415;SDS011;12204;50.600;4.608;2023-04-25T11:37:58;8.25;;;2.00;;
22415;SDS011;12204;50.600;4.608;2023-04-25T11:43:02;9.85;;;1.77;;
22415;SDS011;12204;50.600;4.608;2023-04-25T11:48:07;11.80;;;1.90;;
22415;SDS011;12204;50.600;4.608;2023-04-25T11:53:11;10.45;;;2.10;;
22415;SDS011;12204;50.600;4.608;2023-04-25T11:58:14;10.38;;;2.00;;
22415;SDS011;12204;50.600;4.608;2023-04-25T12:03:19;9.60;;;1.80;;
22415;SDS011;12204;50.600;4.608;2023-04-25T12:08:27;7.47;;;1.65;;
22415;SDS011;12204;50.600;4.608;2023-04-25T12:13:31;6.75;;;1.77;;
22415;SDS011;12204;50.600;4.608;2023-04-25T12:18:36;7.82;;;1.88;;
22415;SDS011;12204;50.600;4.608;2023-04-25T12:23:41;8.35;;;2.00;;
22415;SDS011;12204;50.600;4.608;2023-04-25T12:28:45;7.68;;;1.70;;
22415;SDS011;12204;50.600;4.608;2023-04-25T12:33:51;9.95;;;1.70;;
22415;SDS011;12204;50.600;4.608;2023-04-25T12:38:54;7.28;;;1.50;;
22415;SDS011;12204;50.600;4.608;2023-04-25T12:43:58;7.85;;;1.80;;
22415;SDS011;12204;50.600;4.608;2023-04-25T12:49:03;11.73;;;1.63;;
22415;SDS011;12204;50.600;4.608;2023-04-25T12:54:19;11.23;;;1.92;;
22415;SDS011;12204;50.600;4.608;2023-04-25T12:59:22;7.82;;;1.75;;
22415;SDS011;12204;50.600;4.608;2023-04-25T13:04:27;8.63;;;1.70;;
22415;SDS011;12204;50.600;4.608;2023-04-25T13:09:31;10.65;;;1.65;;
22415;SDS011;12204;50.600;4.608;2023-04-25T13:14:34;6.82;;;1.40;;
22415;SDS011;12204;50.600;4.608;2023-04-25T13:19:39;8.07;;;1.60;;
22415;SDS011;12204;50.600;4.608;2023-04-25T13:24:42;7.18;;;1.50;;
22415;SDS011;12204;50.600;4.608;2023-04-25T13:29:46;8.05;;;1.48;;
22415;SDS011;12204;50.600;4.608;2023-04-25T13:34:51;9.75;;;1.70;;
22415;SDS011;12204;50.600;4.608;2023-04-25T13:39:56;7.03;;;1.70;;
22415;SDS011;12204;50.600;4.608;2023-04-25T13:45:00;8.23;;;1.50;;
22415;SDS011;12204;50.600;4.608;2023-04-25T13:50:06;9.93;;;1.63;;
22415;SDS011;12204;50.600;4.608;2023-04-25T13:55:11;7.07;;;1.50;;
22415;SDS011;12204;50.600;4.608;2023-04-25T14:00:14;6.53;;;1.50;;
22415;SDS011;12204;50.600;4.608;2023-04-25T14:05:21;6.75;;;1.50;;
22415;SDS011;12204;50.600;4.608;2023-04-25T14:10:25;8.63;;;1.30;;
22415;SDS011;12204;50.600;4.608;2023-04-25T14:15:29;7.00;;;1.40;;
22415;SDS011;12204;50.600;4.608;2023-04-25T14:20:35;7.35;;;1.45;;
22415;SDS011;12204;50.600;4.608;2023-04-25T14:25:38;7.95;;;1.48;;
22415;SDS011;12204;50.600;4.608;2023-04-25T14:30:43;6.57;;;1.50;;
22415;SDS011;12204;50.600;4.608;2023-04-25T14:35:48;8.23;;;1.42;;
22415;SDS011;12204;50.600;4.608;2023-04-25T14:40:51;5.30;;;1.40;;
22415;SDS011;12204;50.600;4.608;2023-04-25T14:45:55;7.70;;;1.40;;
22415;SDS011;12204;50.600;4.608;2023-04-25T14:51:00;8.50;;;1.35;;
22415;SDS011;12204;50.600;4.608;2023-04-25T14:56:04;6.43;;;1.50;;
22415;SDS011;12204;50.600;4.608;2023-04-25T15:01:08;6.90;;;1.30;;
22415;SDS011;12204;50.600;4.608;2023-04-25T15:06:14;5.45;;;1.30;;
22415;SDS011;12204;50.600;4.608;2023-04-25T15:11:18;8.00;;;1.40;;
22415;SDS011;12204;50.600;4.608;2023-04-25T15:16:23;6.60;;;1.25;;
22415;SDS011;12204;50.600;4.608;2023-04-25T15:21:28;7.50;;;1.50;;
22415;SDS011;12204;50.600;4.608;2023-04-25T15:26:32;7.65;;;1.40;;
22415;SDS011;12204;50.600;4.608;2023-04-25T15:31:36;4.55;;;1.17;;
22415;SDS011;12204;50.600;4.608;2023-04-25T15:36:41;6.60;;;1.48;;
22415;SDS011;12204;50.600;4.608;2023-04-25T15:41:45;8.30;;;1.48;;
22415;SDS011;12204;50.600;4.608;2023-04-25T15:46:49;5.85;;;1.17;;
22415;SDS011;12204;50.600;4.608;2023-04-25T15:51:56;5.03;;;1.20;;
22415;SDS011;12204;50.600;4.608;2023-04-25T15:57:00;5.70;;;1.30;;
22415;SDS011;12204;50.600;4.608;2023-04-25T16:02:03;8.25;;;1.38;;
22415;SDS011;12204;50.600;4.608;2023-04-25T16:07:08;5.50;;;1.13;;
22415;SDS011;12204;50.600;4.608;2023-04-25T16:12:12;4.65;;;1.08;;
22415;SDS011;12204;50.600;4.608;2023-04-25T16:17:15;9.25;;;1.50;;
22415;SDS011;12204;50.600;4.608;2023-04-25T16:22:20;6.45;;;1.30;;
22415;SDS011;12204;50.600;4.608;2023-04-25T16:27:24;7.15;;;1.33;;
22415;SDS011;12204;50.600;4.608;2023-04-25T16:32:27;5.60;;;1.10;;
22415;SDS011;12204;50.600;4.608;2023-04-25T16:37:32;4.35;;;0.93;;
22415;SDS011;12204;50.600;4.608;2023-04-25T16:42:35;6.20;;;1.20;;
22415;SDS011;12204;50.600;4.608;2023-04-25T16:47:39;5.38;;;1.20;;
22415;SDS011;12204;50.600;4.608;2023-04-25T16:52:44;5.07;;;1.10;;
22415;SDS011;12204;50.600;4.608;2023-04-25T16:57:47;5.75;;;1.00;;
22415;SDS011;12204;50.600;4.608;2023-04-25T17:02:51;6.32;;;1.27;;
22415;SDS011;12204;50.600;4.608;2023-04-25T17:07:56;5.97;;;1.00;;
22415;SDS011;12204;50.600;4.608;2023-04-25T17:12:59;5.97;;;1.13;;
22415;SDS011;12204;50.600;4.608;2023-04-25T17:18:03;7.18;;;1.00;;
22415;SDS011;12204;50.600;4.608;2023-04-25T17:23:08;6.93;;;0.90;;
22415;SDS011;12204;50.600;4.608;2023-04-25T17:28:11;8.70;;;1.30;;
22415;SDS011;12204;50.600;4.608;2023-04-25T17:33:15;5.15;;;0.98;;
22415;SDS011;12204;50.600;4.608;2023-04-25T17:38:20;8.27;;;1.33;;
22415;SDS011;12204;50.600;4.608;2023-04-25T17:43:23;4.00;;;0.88;;
22415;SDS011;12204;50.600;4.608;2023-04-25T17:48:28;5.13;;;1.17;;
22415;SDS011;12204;50.600;4.608;2023-04-25T17:53:33;5.20;;;1.10;;
22415;SDS011;12204;50.600;4.608;2023-04-25T17:58:37;6.63;;;1.38;;
22415;SDS011;12204;50.600;4.608;2023-04-25T18:03:40;7.68;;;1.75;;
22415;SDS011;12204;50.600;4.608;2023-04-25T18:08:47;7.82;;;2.10;;
22415;SDS011;12204;50.600;4.608;2023-04-25T18:13:51;8.20;;;2.50;;
22415;SDS011;12204;50.600;4.608;2023-04-25T18:18:55;10.63;;;2.90;;
22415;SDS011;12204;50.600;4.608;2023-04-25T18:24:07;8.00;;;2.78;;
22415;SDS011;12204;50.600;4.608;2023-04-25T18:29:13;9.03;;;2.87;;
22415;SDS011;12204;50.600;4.608;2023-04-25T18:34:33;8.48;;;2.70;;
22415;SDS011;12204;50.600;4.608;2023-04-25T18:39:37;8.50;;;2.80;;
22415;SDS011;12204;50.600;4.608;2023-04-25T18:44:42;8.07;;;2.80;;
22415;SDS011;12204;50.600;4.608;2023-04-25T18:49:46;9.27;;;2.70;;
22415;SDS011;12204;50.600;4.608;2023-04-25T18:54:52;8.95;;;2.75;;
22415;SDS011;12204;50.600;4.608;2023-04-25T18:59:56;10.13;;;2.42;;
22415;SDS011;12204;50.600;4.608;2023-04-25T19:04:59;8.40;;;2.90;;
22415;SDS011;12204;50.600;4.608;2023-04-25T19:10:05;9.05;;;2.90;;
22415;SDS011;12204;50.600;4.608;2023-04-25T19:15:10;7.35;;;2.50;;
22415;SDS011;12204;50.600;4.608;2023-04-25T19:20:13;8.43;;;2.60;;
22415;SDS011;12204;50.600;4.608;2023-04-25T19:25:18;9.80;;;2.40;;
22415;SDS011;12204;50.600;4.608;2023-04-25T19:30:22;8.65;;;2.35;;
22415;SDS011;12204;50.600;4.608;2023-04-25T19:35:26;8.45;;;2.30;;
22415;SDS011;12204;50.600;4.608;2023-04-25T19:40:34;12.20;;;2.20;;
22415;SDS011;12204;50.600;4.608;2023-04-25T19:45:38;14.23;;;2.53;;
22415;SDS011;12204;50.600;4.608;2023-04-25T19:50:42;11.00;;;2.30;;
22415;SDS011;12204;50.600;4.608;2023-04-25T19:55:46;9.52;;;2.10;;
22415;SDS011;12204;50.600;4.608;2023-04-25T20:00:50;9.35;;;2.10;;
22415;SDS011;12204;50.600;4.608;2023-04-25T20:05:53;8.18;;;2.15;;
22415;SDS011;12204;50.600;4.608;2023-04-25T20:10:58;8.70;;;1.80;;
22415;SDS011;12204;50.600;4.608;2023-04-25T20:16:02;6.15;;;1.83;;
22415;SDS011;12204;50.600;4.608;2023-04-25T20:21:06;8.95;;;2.13;;
22415;SDS011;12204;50.600;4.608;2023-04-25T20:26:11;10.20;;;2.22;;
22415;SDS011;12204;50.600;4.608;2023-04-25T20:31:15;8.63;;;1.92;;
22415;SDS011;12204;50.600;4.608;2023-04-25T20:36:18;7.30;;;2.08;;
22415;SDS011;12204;50.600;4.608;2023-04-25T20:41:23;6.35;;;1.70;;
22415;SDS011;12204;50.600;4.608;2023-04-25T20:46:27;5.97;;;1.75;;
22415;SDS011;12204;50.600;4.608;2023-04-25T20:51:31;6.35;;;1.75;;
22415;SDS011;12204;50.600;4.608;2023-04-25T20:56:36;8.13;;;2.00;;
22415;SDS011;12204;50.600;4.608;2023-04-25T21:01:40;12.32;;;2.05;;
22415;SDS011;12204;50.600;4.608;2023-04-25T21:06:44;8.55;;;1.65;;
22415;SDS011;12204;50.600;4.608;2023-04-25T21:11:49;6.65;;;1.60;;
22415;SDS011;12204;50.600;4.608;2023-04-25T21:16:55;9.82;;;1.60;;
22415;SDS011;12204;50.600;4.608;2023-04-25T21:21:58;6.07;;;1.60;;
22415;SDS011;12204;50.600;4.608;2023-04-25T21:27:05;5.93;;;1.60;;
22415;SDS011;12204;50.600;4.608;2023-04-25T21:32:09;5.72;;;1.65;;
22415;SDS011;12204;50.600;4.608;2023-04-25T21:42:21;6.22;;;1.70;;
22415;SDS011;12204;50.600;4.608;2023-04-25T21:47:25;5.45;;;1.40;;
22415;SDS011;12204;50.600;4.608;2023-04-25T21:52:28;8.07;;;1.60;;
22415;SDS011;12204;50.600;4.608;2023-04-25T21:57:33;7.00;;;1.73;;
22415;SDS011;12204;50.600;4.608;2023-04-25T22:02:36;7.90;;;2.00;;
22415;SDS011;12204;50.600;4.608;2023-04-25T22:07:40;5.53;;;1.60;;
22415;SDS011;12204;50.600;4.608;2023-04-25T22:12:45;5.90;;;1.70;;
22415;SDS011;12204;50.600;4.608;2023-04-25T22:17:51;7.80;;;1.90;;
22415;SDS011;12204;50.600;4.608;2023-04-25T22:22:56;5.40;;;1.80;;
22415;SDS011;12204;50.600;4.608;2023-04-25T22:28:01;8.95;;;2.08;;
22415;SDS011;12204;50.600;4.608;2023-04-25T22:33:04;8.75;;;2.05;;
22415;SDS011;12204;50.600;4.608;2023-04-25T22:38:08;7.82;;;2.00;;
22415;SDS011;12204;50.600;4.608;2023-04-25T22:43:13;9.50;;;2.13;;
22415;SDS011;12204;50.600;4.608;2023-04-25T22:48:16;6.55;;;2.17;;
22415;SDS011;12204;50.600;4.608;2023-04-25T22:53:19;7.85;;;2.28;;
22415;SDS011;12204;50.600;4.608;2023-04-25T22:58:24;8.70;;;2.15;;
22415;SDS011;12204;50.600;4.608;2023-04-25T23:03:28;5.78;;;1.80;;
22415;SDS011;12204;50.600;4.608;2023-04-25T23:08:33;6.78;;;2.10;;
22415;SDS011;12204;50.600;4.608;2023-04-25T23:13:37;7.53;;;1.98;;
22415;SDS011;12204;50.600;4.608;2023-04-25T23:18:41;8.60;;;2.10;;
22415;SDS011;12204;50.600;4.608;2023-04-25T23:23:44;6.47;;;2.00;;
22415;SDS011;12204;50.600;4.608;2023-04-25T23:28:49;9.00;;;2.03;;
22415;SDS011;12204;50.600;4.608;2023-04-25T23:33:53;10.10;;;2.00;;
22415;SDS011;12204;50.600;4.608;2023-04-25T23:38:56;7.55;;;2.28;;
22415;SDS011;12204;50.600;4.608;2023-04-25T23:44:03;6.18;;;1.80;;
22415;SDS011;12204;50.600;4.608;2023-04-25T23:49:09;7.93;;;2.10;;
22415;SDS011;12204;50.600;4.608;2023-04-25T23:54:12;6.82;;;1.83;;
22415;SDS011;12204;50.600;4.608;2023-04-25T23:59:17;5.78;;;1.70;;
